createdAt,value
2022-12-06T00:01:58.198Z,9.60
2022-12-06T00:04:27.348Z,9.33
2022-12-06T00:06:57.552Z,8.77
2022-12-06T00:09:31.418Z,9.30
2022-12-06T00:12:01.940Z,8.93
2022-12-06T00:14:32.109Z,8.57
2022-12-06T00:17:03.716Z,8.83
2022-12-06T00:19:32.808Z,8.50
2022-12-06T00:22:04.584Z,9.07
2022-12-06T00:24:38.963Z,9.20
2022-12-06T00:27:07.892Z,9.43
2022-12-06T00:29:36.974Z,9.57
2022-12-06T00:32:06.271Z,11.50
2022-12-06T00:34:35.205Z,17.97
2022-12-06T00:37:04.023Z,24.03
2022-12-06T00:39:34.558Z,28.03
2022-12-06T00:42:03.355Z,26.17
2022-12-06T00:44:32.247Z,18.17
2022-12-06T00:47:01.182Z,11.63
2022-12-06T00:49:30.014Z,9.27
2022-12-06T00:51:58.879Z,11.23
2022-12-06T00:54:27.716Z,8.90
2022-12-06T00:56:58.051Z,7.87
2022-12-06T00:59:27.420Z,10.03
2022-12-06T01:01:56.457Z,8.53
2022-12-06T01:04:26.561Z,9.93
2022-12-06T01:06:56.046Z,10.07
2022-12-06T01:09:24.898Z,8.43
2022-12-06T01:11:53.537Z,8.70
2022-12-06T01:14:23.535Z,8.17
2022-12-06T01:16:52.309Z,7.67
2022-12-06T01:19:20.964Z,8.40
2022-12-06T01:21:50.412Z,8.17
2022-12-06T01:24:19.050Z,8.83
2022-12-06T01:26:47.773Z,7.63
2022-12-06T01:29:16.405Z,8.33
2022-12-06T01:31:46.435Z,9.20
2022-12-06T01:34:17.322Z,8.77
2022-12-06T01:36:47.291Z,8.67
2022-12-06T01:39:15.983Z,9.33
2022-12-06T01:41:44.623Z,7.97
2022-12-06T01:44:41.222Z,8.37
2022-12-06T01:47:18.068Z,8.70
2022-12-06T01:49:51.742Z,7.93
2022-12-06T01:52:21.535Z,9.10
2022-12-06T01:54:50.497Z,9.17
2022-12-06T01:57:19.468Z,8.73
2022-12-06T01:59:48.908Z,9.03
2022-12-06T02:02:19.183Z,7.57
2022-12-06T02:04:48.547Z,8.27
2022-12-06T02:07:17.426Z,9.97
2022-12-06T02:09:47.150Z,8.00
2022-12-06T02:12:16.621Z,7.67
2022-12-06T02:14:49.645Z,8.90
2022-12-06T02:17:30.982Z,7.43
2022-12-06T02:20:13.021Z,10.60
2022-12-06T02:23:15.548Z,8.50
2022-12-06T02:26:21.017Z,9.10
2022-12-06T02:29:40.548Z,7.87
2022-12-06T02:32:16.294Z,9.43
2022-12-06T02:34:51.582Z,7.40
2022-12-06T02:37:23.917Z,9.93
2022-12-06T02:39:58.351Z,9.03
2022-12-06T02:42:32.625Z,9.67
2022-12-06T02:45:05.594Z,9.60
2022-12-06T02:47:38.389Z,9.83
2022-12-06T02:50:12.310Z,10.43
2022-12-06T02:52:44.686Z,7.93
2022-12-06T02:55:15.821Z,8.90
2022-12-06T02:57:47.377Z,8.43
2022-12-06T03:00:44.428Z,8.60
2022-12-06T03:03:31.903Z,9.57
2022-12-06T03:06:32.371Z,8.70
2022-12-06T03:09:14.624Z,8.10
2022-12-06T03:11:52.474Z,7.07
2022-12-06T03:14:24.680Z,8.50
2022-12-06T03:17:02.201Z,8.23
2022-12-06T03:19:35.017Z,8.77
2022-12-06T03:22:07.903Z,10.17
2022-12-06T03:24:40.700Z,9.53
2022-12-06T03:27:13.679Z,8.83
2022-12-06T03:29:50.278Z,9.07
2022-12-06T03:32:26.700Z,8.20
2022-12-06T03:35:04.088Z,8.00
2022-12-06T03:37:34.435Z,7.90
2022-12-06T03:40:11.294Z,7.80
2022-12-06T03:42:40.559Z,10.47
2022-12-06T03:45:12.062Z,7.47
2022-12-06T03:47:49.579Z,6.87
2022-12-06T03:50:23.781Z,8.20
2022-12-06T03:52:53.579Z,7.63
2022-12-06T03:55:22.380Z,7.40
2022-12-06T03:57:51.257Z,7.40
2022-12-06T04:00:20.749Z,6.73
2022-12-06T04:02:51.271Z,8.40
2022-12-06T04:05:21.545Z,11.60
2022-12-06T04:07:52.130Z,8.00
2022-12-06T04:10:21.157Z,7.53
2022-12-06T04:13:02.303Z,6.37
2022-12-06T04:15:33.439Z,7.87
2022-12-06T04:18:14.029Z,6.40
2022-12-06T04:21:04.388Z,6.30
2022-12-06T04:23:38.760Z,8.00
2022-12-06T04:26:10.428Z,8.73
2022-12-06T04:28:57.061Z,7.30
2022-12-06T04:31:43.447Z,7.67
2022-12-06T04:34:30.122Z,7.37
2022-12-06T04:37:17.722Z,7.83
2022-12-06T04:39:46.757Z,7.13
2022-12-06T04:42:32.815Z,7.97
2022-12-06T04:45:01.671Z,7.17
2022-12-06T04:47:30.445Z,7.57
2022-12-06T04:50:02.628Z,7.03
2022-12-06T04:52:35.989Z,7.23
2022-12-06T04:55:05.726Z,7.03
2022-12-06T04:57:34.627Z,7.40
2022-12-06T05:00:03.898Z,6.30
2022-12-06T05:02:32.787Z,6.80
2022-12-06T05:05:04.601Z,7.40
2022-12-06T05:07:34.811Z,7.80
2022-12-06T05:10:03.837Z,6.87
2022-12-06T05:12:32.732Z,6.43
2022-12-06T05:15:01.490Z,7.23
2022-12-06T05:17:30.222Z,8.63
2022-12-06T05:19:59.298Z,7.33
2022-12-06T05:22:28.382Z,9.73
2022-12-06T05:24:58.596Z,9.30
2022-12-06T05:27:30.514Z,8.40
2022-12-06T05:30:05.138Z,6.40
2022-12-06T05:32:34.007Z,6.73
2022-12-06T05:35:02.797Z,6.73
2022-12-06T05:37:31.473Z,6.73
2022-12-06T05:40:02.139Z,6.80
2022-12-06T05:42:31.476Z,6.73
2022-12-06T05:45:00.234Z,7.00
2022-12-06T05:47:29.134Z,7.77
2022-12-06T05:49:58.009Z,7.40
2022-12-06T05:52:30.056Z,7.17
2022-12-06T05:54:58.774Z,7.13
2022-12-06T05:57:28.936Z,9.53
2022-12-06T06:00:00.155Z,6.57
2022-12-06T06:02:29.407Z,7.60
2022-12-06T06:04:58.254Z,7.43
2022-12-06T06:07:27.498Z,7.13
2022-12-06T06:09:56.211Z,8.30
2022-12-06T06:12:25.024Z,8.00
2022-12-06T06:14:55.237Z,8.97
2022-12-06T06:17:26.066Z,7.87
2022-12-06T06:19:54.815Z,7.53
2022-12-06T06:22:24.673Z,7.47
2022-12-06T06:24:53.545Z,7.63
2022-12-06T06:27:22.322Z,6.57
2022-12-06T06:29:50.970Z,6.03
2022-12-06T06:32:25.719Z,7.93
2022-12-06T06:34:54.504Z,7.03
2022-12-06T06:37:25.339Z,7.27
2022-12-06T06:39:54.077Z,7.10
2022-12-06T06:42:22.841Z,8.57
2022-12-06T06:44:51.978Z,8.10
2022-12-06T06:47:25.273Z,7.83
2022-12-06T06:49:54.057Z,7.53
2022-12-06T06:52:22.904Z,8.37
2022-12-06T06:54:54.882Z,6.93
2022-12-06T06:57:29.425Z,8.03
2022-12-06T06:59:58.483Z,8.48
2022-12-06T07:02:31.175Z,8.90
2022-12-06T07:05:00.064Z,7.33
2022-12-06T07:07:32.573Z,6.67
2022-12-06T07:10:01.514Z,7.50
2022-12-06T07:12:30.611Z,7.87
2022-12-06T07:14:59.399Z,8.47
2022-12-06T07:17:29.550Z,7.77
2022-12-06T07:19:58.456Z,7.27
2022-12-06T07:22:27.731Z,7.67
2022-12-06T07:24:56.909Z,7.17
2022-12-06T07:27:25.869Z,7.53
2022-12-06T07:29:54.643Z,6.27
2022-12-06T07:32:23.444Z,7.07
2022-12-06T07:34:53.761Z,6.97
2022-12-06T07:37:22.495Z,7.47
2022-12-06T07:39:51.234Z,6.93
2022-12-06T07:42:38.280Z,7.30
2022-12-06T07:45:12.206Z,7.60
2022-12-06T07:47:42.726Z,6.33
2022-12-06T07:50:18.110Z,5.83
2022-12-06T07:52:48.537Z,8.03
2022-12-06T07:55:18.031Z,6.60
2022-12-06T07:57:48.320Z,8.80
2022-12-06T08:00:17.787Z,6.60
2022-12-06T08:02:46.719Z,6.30
2022-12-06T08:05:16.913Z,6.33
2022-12-06T08:07:45.616Z,7.13
2022-12-06T08:10:14.662Z,5.60
2022-12-06T08:12:43.556Z,5.83
2022-12-06T08:15:13.628Z,6.77
2022-12-06T08:17:43.070Z,6.37
2022-12-06T08:20:12.952Z,6.10
2022-12-06T08:22:43.177Z,5.67
2022-12-06T08:25:12.042Z,7.20
2022-12-06T08:27:40.801Z,5.43
2022-12-06T08:30:10.489Z,7.30
2022-12-06T08:32:39.238Z,6.23
2022-12-06T08:35:08.414Z,5.97
2022-12-06T08:37:37.121Z,6.00
2022-12-06T08:40:09.027Z,6.43
2022-12-06T08:42:37.615Z,5.47
2022-12-06T08:45:07.441Z,5.80
2022-12-06T08:47:36.212Z,6.43
2022-12-06T08:50:05.600Z,6.27
2022-12-06T08:52:34.441Z,5.73
2022-12-06T08:55:02.983Z,7.20
2022-12-06T08:57:33.840Z,6.57
2022-12-06T09:00:02.791Z,6.97
2022-12-06T09:02:31.573Z,5.73
2022-12-06T09:05:00.404Z,7.10
2022-12-06T09:07:29.217Z,7.60
2022-12-06T09:09:58.103Z,6.33
2022-12-06T09:12:27.090Z,5.83
2022-12-06T09:14:57.512Z,6.73
2022-12-06T09:17:26.172Z,6.60
2022-12-06T09:19:55.073Z,6.63
2022-12-06T09:22:23.743Z,8.70
2022-12-06T09:24:52.328Z,6.97
2022-12-06T09:27:21.418Z,7.10
2022-12-06T09:29:50.421Z,5.30
2022-12-06T09:32:20.616Z,5.50
2022-12-06T09:34:49.510Z,5.70
2022-12-06T09:37:18.414Z,6.90
2022-12-06T09:39:51.167Z,6.00
2022-12-06T09:42:48.729Z,6.17
2022-12-06T09:45:37.838Z,6.73
2022-12-06T09:48:35.424Z,6.93
2022-12-06T09:51:16.733Z,6.90
2022-12-06T09:54:01.399Z,5.93
2022-12-06T09:56:35.673Z,6.60
2022-12-06T09:59:15.838Z,6.00
2022-12-06T10:01:57.025Z,5.20
2022-12-06T10:04:42.821Z,6.57
2022-12-06T10:07:16.191Z,6.27
2022-12-06T10:09:57.474Z,6.10
2022-12-06T10:12:43.526Z,6.47
2022-12-06T10:15:25.693Z,5.70
2022-12-06T10:18:10.809Z,7.03
2022-12-06T10:20:48.496Z,6.43
2022-12-06T10:23:32.988Z,5.87
2022-12-06T10:26:11.076Z,5.83
2022-12-06T10:28:45.660Z,6.60
2022-12-06T10:31:23.953Z,6.77
2022-12-06T10:33:58.250Z,6.40
2022-12-06T10:36:43.419Z,7.50
2022-12-06T10:39:19.499Z,6.57
2022-12-06T10:41:57.094Z,6.20
2022-12-06T10:44:30.404Z,7.53
2022-12-06T10:47:06.528Z,7.87
2022-12-06T10:49:55.084Z,8.23
2022-12-06T10:52:37.416Z,6.23
2022-12-06T10:55:23.277Z,8.83
2022-12-06T10:58:00.150Z,7.30
2022-12-06T11:00:32.426Z,9.10
2022-12-06T11:03:06.891Z,8.20
2022-12-06T11:05:39.294Z,8.20
2022-12-06T11:08:16.119Z,6.30
2022-12-06T11:10:47.314Z,6.70
2022-12-06T11:13:22.296Z,6.77
2022-12-06T11:15:56.188Z,7.30
2022-12-06T11:18:29.421Z,7.77
2022-12-06T11:21:03.098Z,7.33
2022-12-06T11:23:39.388Z,7.60
2022-12-06T11:26:19.518Z,7.30
2022-12-06T11:28:55.633Z,6.40
2022-12-06T11:31:28.273Z,8.27
2022-12-06T11:33:57.743Z,7.10
2022-12-06T11:36:29.215Z,8.23
2022-12-06T11:39:00.898Z,7.90
2022-12-06T11:41:32.117Z,8.07
2022-12-06T11:44:01.160Z,7.07
2022-12-06T11:46:30.540Z,9.33
2022-12-06T11:49:07.036Z,7.30
2022-12-06T11:51:35.756Z,8.83
2022-12-06T11:54:09.019Z,10.33
2022-12-06T11:56:40.218Z,9.10
2022-12-06T11:59:22.907Z,8.20
2022-12-06T12:01:52.998Z,7.10
2022-12-06T12:04:36.590Z,7.53
2022-12-06T12:07:12.346Z,7.37
2022-12-06T12:09:51.242Z,7.60
2022-12-06T12:12:22.998Z,6.80
2022-12-06T12:14:58.559Z,7.83
2022-12-06T12:17:32.536Z,8.70
2022-12-06T12:20:06.566Z,8.47
2022-12-06T12:22:37.463Z,8.67
2022-12-06T12:25:24.131Z,8.67
2022-12-06T12:27:54.448Z,6.80
2022-12-06T12:30:26.805Z,7.40
2022-12-06T12:33:18.696Z,7.77
2022-12-06T12:35:49.902Z,8.60
2022-12-06T12:38:27.921Z,8.40
2022-12-06T12:41:01.485Z,8.67
2022-12-06T12:43:33.050Z,7.07
2022-12-06T12:46:17.979Z,8.10
2022-12-06T12:48:48.820Z,7.40
2022-12-06T12:51:33.698Z,7.03
2022-12-06T12:54:04.540Z,7.43
2022-12-06T12:56:38.974Z,8.97
2022-12-06T12:59:15.233Z,9.23
2022-12-06T13:01:47.925Z,9.13
2022-12-06T13:04:28.291Z,8.90
2022-12-06T13:07:01.013Z,8.60
2022-12-06T13:09:38.888Z,10.03
2022-12-06T13:12:14.135Z,8.63
2022-12-06T13:14:52.489Z,9.13
2022-12-06T13:17:24.457Z,7.47
2022-12-06T13:19:54.606Z,8.13
2022-12-06T13:22:32.470Z,7.73
2022-12-06T13:25:03.386Z,9.10
2022-12-06T13:27:38.445Z,8.60
2022-12-06T13:30:13.292Z,8.87
2022-12-06T13:32:45.432Z,7.93
2022-12-06T13:35:26.770Z,7.67
2022-12-06T13:37:57.871Z,8.27
2022-12-06T13:40:49.151Z,8.90
2022-12-06T13:44:00.026Z,8.00
2022-12-06T13:46:34.350Z,9.03
2022-12-06T13:49:27.380Z,8.70
2022-12-06T13:51:56.224Z,7.73
2022-12-06T13:54:42.536Z,9.43
2022-12-06T13:57:32.092Z,7.53
2022-12-06T14:00:01.171Z,8.83
2022-12-06T14:02:55.734Z,8.23
2022-12-06T14:08:40.659Z,8.43
2022-12-06T14:11:22.183Z,8.90
2022-12-06T14:14:01.740Z,7.37
2022-12-06T14:16:36.233Z,8.60
2022-12-06T14:19:20.305Z,8.63
2022-12-06T14:21:58.256Z,8.93
2022-12-06T14:24:29.961Z,9.57
2022-12-06T14:27:05.969Z,8.53
2022-12-06T14:29:34.656Z,8.97
2022-12-06T14:32:03.516Z,8.73
2022-12-06T14:34:35.119Z,8.83
2022-12-06T14:37:13.794Z,8.43
2022-12-06T14:39:42.324Z,8.60
2022-12-06T14:42:36.488Z,8.50
2022-12-06T14:45:10.938Z,8.30
2022-12-06T14:47:40.573Z,8.40
2022-12-06T14:50:25.623Z,7.37
2022-12-06T14:53:00.398Z,9.13
2022-12-06T14:55:31.231Z,8.70
2022-12-06T14:58:01.862Z,8.57
2022-12-06T15:00:37.468Z,7.97
2022-12-06T15:03:26.101Z,7.90
2022-12-06T15:06:12.471Z,8.33
2022-12-06T15:08:42.147Z,8.23
2022-12-06T15:11:49.201Z,8.33
2022-12-06T15:14:20.040Z,7.43
2022-12-06T15:16:58.744Z,7.90
2022-12-06T15:19:27.779Z,8.40
2022-12-06T15:21:57.767Z,8.07
2022-12-06T15:24:28.011Z,9.20
2022-12-06T15:26:56.700Z,9.57
2022-12-06T15:29:26.142Z,7.47
2022-12-06T15:31:56.205Z,8.23
2022-12-06T15:34:27.766Z,9.30
2022-12-06T15:37:30.277Z,8.00
2022-12-06T15:39:48.888Z,8.77
2022-12-06T15:42:19.893Z,7.30
2022-12-06T15:44:50.258Z,7.10
2022-12-06T15:47:20.558Z,7.73
2022-12-06T15:49:51.049Z,7.30
2022-12-06T15:52:23.498Z,7.57
2022-12-06T15:54:52.224Z,7.93
2022-12-06T15:57:21.042Z,7.33
2022-12-06T15:59:49.884Z,8.30
2022-12-06T16:02:19.897Z,7.70
2022-12-06T16:04:51.042Z,8.83
2022-12-06T16:07:21.067Z,7.63
2022-12-06T16:09:49.911Z,9.17
2022-12-06T16:12:18.902Z,8.40
2022-12-06T16:14:47.697Z,8.20
2022-12-06T16:17:16.406Z,11.77
2022-12-06T16:20:02.429Z,9.50
2022-12-06T16:22:49.975Z,9.40
2022-12-06T16:25:18.890Z,8.40
2022-12-06T16:27:47.401Z,9.43
2022-12-06T16:30:17.101Z,10.23
2022-12-06T16:32:45.746Z,8.50
2022-12-06T16:35:14.380Z,8.30
2022-12-06T16:37:44.353Z,9.80
2022-12-06T16:40:21.621Z,9.30
2022-12-06T16:42:50.457Z,8.93
2022-12-06T16:45:20.017Z,8.57
2022-12-06T16:47:50.340Z,12.07
2022-12-06T16:50:22.906Z,9.07
2022-12-06T16:52:54.088Z,9.93
2022-12-06T16:55:22.745Z,8.73
2022-12-06T16:57:51.314Z,10.13
2022-12-06T17:00:20.647Z,19.33
2022-12-06T17:02:49.239Z,9.67
2022-12-06T17:05:20.718Z,10.40
2022-12-06T17:07:50.117Z,12.77
2022-12-06T17:10:21.685Z,8.40
2022-12-06T17:12:50.659Z,11.00
2022-12-06T17:15:21.425Z,12.00
2022-12-06T17:17:50.585Z,10.63
2022-12-06T17:20:22.267Z,12.27
2022-12-06T17:22:51.022Z,13.77
2022-12-06T17:25:21.263Z,10.03
2022-12-06T17:27:51.505Z,10.63
2022-12-06T17:30:22.327Z,10.43
2022-12-06T17:32:50.937Z,10.57
2022-12-06T17:35:19.745Z,12.03
2022-12-06T17:37:48.447Z,11.83
2022-12-06T17:40:17.234Z,12.40
2022-12-06T17:43:01.414Z,11.13
2022-12-06T17:45:30.148Z,11.73
2022-12-06T17:47:58.851Z,13.47
2022-12-06T17:50:27.775Z,12.67
2022-12-06T17:52:56.366Z,14.33
2022-12-06T17:55:24.927Z,14.10
2022-12-06T17:57:54.930Z,12.10
2022-12-06T18:00:24.084Z,13.20
2022-12-06T18:02:52.801Z,11.17
2022-12-06T18:05:21.478Z,10.90
2022-12-06T18:07:51.744Z,13.43
2022-12-06T18:10:20.521Z,12.67
2022-12-06T18:12:49.158Z,13.07
2022-12-06T18:15:36.698Z,12.27
2022-12-06T18:18:06.051Z,11.80
2022-12-06T18:20:34.693Z,11.97
2022-12-06T18:23:03.328Z,13.30
2022-12-06T18:25:31.948Z,13.73
2022-12-06T18:28:00.564Z,14.33
2022-12-06T18:30:30.582Z,12.77
2022-12-06T18:33:01.921Z,14.57
2022-12-06T18:35:30.688Z,11.77
2022-12-06T18:37:59.301Z,13.87
2022-12-06T18:40:27.944Z,12.87
2022-12-06T18:42:56.680Z,14.30
2022-12-06T18:45:25.537Z,13.47
2022-12-06T18:47:55.657Z,11.33
2022-12-06T18:50:24.264Z,14.33
2022-12-06T18:52:52.854Z,12.87
2022-12-06T18:55:21.456Z,14.30
2022-12-06T18:57:50.152Z,12.90
2022-12-06T19:00:19.429Z,15.23
2022-12-06T19:02:48.121Z,13.77
2022-12-06T19:05:32.944Z,13.43
2022-12-06T19:08:07.123Z,12.47
2022-12-06T19:10:36.412Z,14.20
2022-12-06T19:13:06.097Z,13.13
2022-12-06T19:15:34.762Z,12.43
2022-12-06T19:18:03.649Z,10.93
2022-12-06T19:20:33.760Z,12.53
2022-12-06T19:23:02.597Z,12.40
2022-12-06T19:25:31.214Z,12.40
2022-12-06T19:27:59.863Z,14.10
2022-12-06T19:30:28.775Z,12.70
2022-12-06T19:32:58.104Z,12.47
2022-12-06T19:35:26.908Z,12.93
2022-12-06T19:37:57.098Z,13.80
2022-12-06T19:40:26.716Z,13.17
2022-12-06T19:43:12.747Z,14.80
2022-12-06T19:45:41.394Z,13.13
2022-12-06T19:48:10.019Z,13.20
2022-12-06T19:50:38.643Z,15.27
2022-12-06T19:53:08.781Z,14.07
2022-12-06T19:55:37.482Z,12.93
2022-12-06T19:58:06.237Z,12.33
2022-12-06T20:00:34.872Z,13.20
2022-12-06T20:03:03.548Z,13.43
2022-12-06T20:05:32.226Z,13.27
2022-12-06T20:08:00.905Z,11.33
2022-12-06T20:10:30.935Z,14.10
2022-12-06T20:12:59.586Z,13.20
2022-12-06T20:15:28.291Z,11.60
2022-12-06T20:17:56.977Z,13.47
2022-12-06T20:20:26.077Z,12.43
2022-12-06T20:22:54.750Z,12.93
2022-12-06T20:25:23.397Z,11.57
2022-12-06T20:27:53.438Z,13.10
2022-12-06T20:30:23.567Z,12.90
2022-12-06T20:32:52.225Z,12.47
2022-12-06T20:35:20.904Z,13.47
2022-12-06T20:37:51.857Z,12.00
2022-12-06T20:40:20.714Z,14.03
2022-12-06T20:42:49.750Z,12.87
2022-12-06T20:45:20.500Z,11.70
2022-12-06T20:47:53.680Z,13.80
2022-12-06T20:50:23.338Z,13.57
2022-12-06T20:52:52.255Z,12.57
2022-12-06T20:55:21.009Z,14.33
2022-12-06T20:57:52.887Z,10.27
2022-12-06T21:00:25.498Z,12.37
2022-12-06T21:02:54.428Z,12.90
2022-12-06T21:05:24.163Z,11.43
2022-12-06T21:07:52.999Z,14.13
2022-12-06T21:10:21.777Z,11.83
2022-12-06T21:12:50.731Z,12.93
2022-12-06T21:15:19.777Z,12.30
2022-12-06T21:17:50.095Z,13.17
2022-12-06T21:20:19.175Z,12.03
2022-12-06T21:22:48.785Z,12.90
2022-12-06T21:25:17.989Z,12.33
2022-12-06T21:27:46.774Z,12.00
2022-12-06T21:30:15.763Z,15.57
2022-12-06T21:32:44.442Z,13.03
2022-12-06T21:35:14.577Z,12.87
2022-12-06T21:37:43.288Z,16.17
2022-12-06T21:40:13.157Z,11.90
2022-12-06T21:42:41.914Z,11.07
2022-12-06T21:45:11.359Z,12.90
2022-12-06T21:47:40.117Z,11.40
2022-12-06T21:50:09.456Z,12.67
2022-12-06T21:52:39.568Z,10.17
2022-12-06T21:55:08.894Z,11.00
2022-12-06T21:57:37.731Z,10.37
2022-12-06T22:00:07.878Z,12.30
2022-12-06T22:02:36.735Z,12.13
2022-12-06T22:05:05.930Z,11.63
2022-12-06T22:07:37.020Z,11.20
2022-12-06T22:10:08.974Z,11.40
2022-12-06T22:12:37.894Z,12.50
2022-12-06T22:15:08.071Z,13.77
2022-12-06T22:17:36.999Z,10.40
2022-12-06T22:20:07.060Z,12.00
2022-12-06T22:22:35.838Z,12.57
2022-12-06T22:25:05.859Z,11.67
2022-12-06T22:27:36.009Z,12.70
2022-12-06T22:30:05.249Z,11.23
2022-12-06T22:32:34.958Z,13.03
2022-12-06T22:35:07.540Z,12.00
2022-12-06T22:37:36.372Z,11.13
2022-12-06T22:40:05.838Z,11.70
2022-12-06T22:42:36.182Z,11.53
2022-12-06T22:45:05.269Z,11.13
2022-12-06T22:47:34.066Z,11.60
2022-12-06T22:50:03.367Z,10.77
2022-12-06T22:52:32.324Z,12.27
2022-12-06T22:55:01.073Z,10.73
2022-12-06T22:57:29.747Z,11.67
2022-12-06T23:00:01.288Z,11.57
2022-12-06T23:02:30.202Z,11.67
2022-12-06T23:04:58.995Z,10.77
2022-12-06T23:07:27.816Z,11.53
2022-12-06T23:09:56.526Z,10.97
2022-12-06T23:12:25.490Z,11.07
2022-12-06T23:14:56.016Z,9.77
2022-12-06T23:17:26.192Z,11.33
2022-12-06T23:19:55.022Z,9.40
2022-12-06T23:22:23.875Z,9.43
2022-12-06T23:24:52.704Z,10.10
2022-12-06T23:27:21.324Z,9.30
2022-12-06T23:29:50.248Z,11.47
2022-12-06T23:32:19.475Z,9.03
2022-12-06T23:34:49.623Z,9.40
2022-12-06T23:37:18.316Z,9.43
2022-12-06T23:39:47.237Z,9.10
2022-12-06T23:42:16.120Z,8.37
2022-12-06T23:44:44.862Z,9.80
2022-12-06T23:47:13.540Z,8.07
2022-12-06T23:49:42.374Z,8.40
2022-12-06T23:52:12.481Z,8.10
2022-12-06T23:54:41.227Z,6.87
2022-12-06T23:57:13.123Z,8.80
2022-12-06T23:59:42.013Z,9.13
